Columbus, NM (88029)

12:53 AM MDT on July 25, 2014 (GMT -0600)
Sapphire IABR (KNMCOLUM3) Elev 4345 ft | 31.80 °N, 107.78 °W | Change Station

Current weather conditions updated 14 minutes ago

Partly Cloudy
Partly Cloudy
80.6 °F
Feels Like 79 °F
N
7.0
Wind Variable Wind from NE
Gusts 8.0 mph

Today is forecast to be Warmer than yesterday.

Today
High -- | Low -- °F
--% Chance of Precip.
Yesterday
High -- | Low -- °F
Precip. -- in
6:21 AM 8:12 PM
Waning Crescent, 3% visible
Pressure 29.87 in
Visibility 10.0 miles
Clouds Scattered Clouds 12000 ft
Heat Index 79 °F
Dew Point 45 °F
Humidity 28%
Rainfall 0.00 in
Snow Depth Not available.
UV 0 out of 12
Pollen 4.40 out of 12
Air Quality Not available.
Flu Activity Not available.
METAR KDMN 250553Z AUTO 01004KT 10SM SCT120 25/09 A3013 RMK AO2 SLP114 T02500089 10344 20244 50010

More Conditions Fewer Conditions

Pressure 29.87 in
Visibility 10.0 miles
Clouds Scattered Clouds 12000 ft
Heat Index 79 °F
Dew Point 45 °F
Humidity 28%
Rainfall 0.00 in
Snow Depth Not available.
UV 0 out of 12
Pollen 4.40 out of 12
Air Quality Not available.
Flu Activity Not available.
METAR KDMN 250553Z AUTO 01004KT 10SM SCT120 25/09 A3013 RMK AO2 SLP114 T02500089 10344 20244 50010

More Conditions Fewer Conditions

10-Day Weather Forecast

Almanac

Astronomy

Jul. 25, 2014 Rise Set
Actual Time 6:21 AM MDT 8:12 PM MDT
Civil Twilight 5:54 AM MDT 8:39 PM MDT
Nautical Twilight 5:22 AM MDT 9:11 PM MDT
Astronomical Twilight 4:47 AM MDT 9:46 PM MDT
Moon 5:21 AM MDT 7:14 PM MDT
Length of Visible Light 14h 44m
Length of Day
13h 50m
Tomorrow will be 1m 17s shorter.
Waning Crescent, 3% of the Moon is Illuminated
Today
Waning Crescent
Jul 26
New
Aug 3
First Quarter
Aug 10
Full
Aug 17
Last Quarter

Today's Extremes

State Highs State Lows

Community

WunderPhotos

Upload Photos

1,737,265 photos uploaded!

Nearby

Snow Depth

Station Depth Elevation
McKnight Cabin 0 in 9240 ft
Silver Creek Divide 0 in 9000 ft
Sierra Blanca 1 in 10280 ft
Santa Fe 1 in 11445 ft
Wesner Springs 1 in 11120 ft

Earthquake Activity

City Distance Mag. Time & Date
No recent earthquake activity has been reported nearby.
Minimum magnitude displayed is 2.5.

Coastal Water Temperatures

Place Temperature
No Stations Reporting

Nearby Weather Stations

Station Location Temp. Heat Index Dew Point Humidity Wind Precip. Elev Updated Type
Sapphire IABR, Columbus, NM 80.6 °F 79 °F 45 °F 28% NE  at  7.0 mph 0.00 in / hr 4345 ft 12:38 AM MDT Normal
AS208 US NOAA Coop Station, Deming, NM 74.0 °F 77 °F 55 °F 52% SE  at  0.0 mph 0.00 in / hr 4250 ft 12:53 AM MDT Rapid Fire

Show More Stations Show Fewer Stations